Ana Sayfa
METAR-TAF:

METAR-TAF

Havaalanları :

Draughon-Miller Central Texas Regional Airport

Temple, Teksas, Amerika Birleşik Devletleri

Enlem: 31-09N, Boylam: 097-24W, yükseklik: 208 m

Güncel hava durumu gözlemi

Rapor saat 16:51 UTC de 11 dakika önce yapıldı.
Rüzgar kuzey/kuzeybatıdan 6 kt
Sıcaklık 5°C
Nem 100%
Basınç 1027 hPa
Görüş mesafesi: 12.9 km
700 ft yükseklikte parçalı çok bulutlu
6000 ft yükseklikte çok bulutlu
hafif yağmur

METAR: KTPL 141651Z AUTO 34006KT 8SM -RA BKN007 OVC060 05/05 A3032 RMK AO2 SLP269 P0004 T00500050

Saat: 11:02 (17:02 UTC)


TAF: eksik

4.000'den fazla havaalanı için hava durumu gözlemleri ve tahminleri (METAR ve TAF raporları).

Kullanılabilir istasyonlar harita üzerinde sarı ve kırmızı noktalarla gösterilir.

İstasyonun adını görmek için fareyi noktanın üzerinde gezdirin.

Sonrasında hava gözlem ve tahminlerini görmek için tıklayın.

Haritayı değiştirmek için: yaklaştırmak için siyah artı işaretli yeşil düğmeye ve uzaklaştırmak için de eksi işaretli düğmeye hızla tıklayın; bitişik haritalar için yeşil okları kullanın.


METAR-TAF: